Aérodrome :
LOGIN :

S'inscrire | Disclaimer

   EN    FR    IT 

 










Légende :    VFR   VFR Marginal   IFR   IFR Intensif   IFR Très Intensif
Visi : 
Plafond : 
>= 8 km
>= 3000ft
5 à 8 km
1000 à 3000 ft
1500m à 5 km
500 à 1000 ft
800 à 1500m
200 à 500 ft
< 800m
< 200 ft
Symboles :   Orages  Brouillard  Fortes neiges  Fortes précipitations  Vent > 20 kt
SIGMETs :   Divers  Orages  Givrage  Turbulence  Onde Orograph.  Cendres Volcan.







- Altitude de l'aérodrome : 157 ft
- Code IATA : SXF


EDDB - Berlin Schönefeld

DERNIER METAR :
  • 250450Z 23007KT 9999 FEW037 03/M00 Q1013 TEMPO 27015G25KT SHRA

METARs EXPIRÉS :
  • 250420Z 23008KT 9999 BKN037 03/M01 Q1013 TEMPO 27015G25KT SHRA
  • 250350Z 23009KT 9999 BKN037 03/M01 Q1013 NOSIG
  • 250320Z 23007KT 9999 BKN043 03/M00 Q1014 NOSIG
  • 250250Z 24007KT 9999 BKN044 03/M00 Q1014 NOSIG

TAF TAF EDDB
Valide du 25 à 00h jusqu'au 26 à 00h UTC


242300Z 2500/2524 24010KT 9999 SCT040
TEMPO 2505/2509 29015G25KT SHRA BKN014CB
BECMG 2508/2510 29015G25KT
TEMPO 2509/2518 29020G30KT 4000 TSRAGS BKN012CB
Pas de NOTAMs connus pour ce terrain.



MET'MAP, la Météo Aéronautique d'un coup d'oeil ! - Copyright ORBIFLY Décembre 2007 - Disclaimer

ORBIFLY MET'MAP TEAM :

Programmation & Développement : Alexandra Zaïnal
Conception & Développement : Baudouin d'Aumeries
Co-Programmation & Développement : Marc-Olivier Méhu
Soutien technique & logistique : Manuel Goepfert

Contact : metmap@orbifly.com




SOURCES & CREDITS :

   NOAA